Aeroporto :
LOGIN :

Iscrizione | Disclaimer

   EN    FR    IT 

 










Sommario :    VFR   VFR Marginale   IFR   IFR Intensivo   IFR Molto Intensivo
Visibilità : 
Base nubi : 
>= 8 km
>= 3000ft
5 / 8 km
1000 / 3000 ft
1500m / 5 km
500 / 1000 ft
800 / 1500m
200 / 500 ft
< 800m
< 200 ft
Simboli :   Temporali  Nebbia  Neve Forte  Precipitazioni Forti  Vento > 20 kt
SIGMETs :   Varie  Temporali  Ghiacco  Turbolenza  Onda orograficha  Ceneri Vulcaniche






- Altitudine del aeroporto : 1906 ft
- Codice IATA : INN


LOWI - Innsbruck

ULTIMO METAR :
  • 210750Z 27005KT 6000 FEW002 BKN004 01/01 Q1010 BECMG FEW003 BKN100

METARs OBSOLETI :
  • 210720Z VRB02KT 5000 BR FEW002 OVC003 01/01 Q1010 NOSIG
  • 210650Z VRB02KT 4000 BR FEW002 OVC003 01/00 Q1010 TEMPO 6000 NSW
  • 210620Z VRB02KT 6000 FEW002 OVC003 01/00 Q1010 NOSIG
  • 210550Z 25004KT 210V280 8000 FEW002 OVC003 01/00 Q1010 NOSIG
  • 210520Z 24004KT 9999 FEW002 OVC003 01/01 Q1010 NOSIG

TAF AMD TAF LOWI
Valido dal 21 a 06 ore il 22 a 06 ore UTC


210646Z 2106/2206 27003KT 9999 FEW002 BKN004 TX09/2114Z TN01/2106Z
TEMPO 2106/2109 3000 BR
TEMPO 2109/2112 27008KT FEW002 BKN007
BECMG 2110/2112 FEW015 SCT100
PROB40 2120/2206 BKN007



MetMap, La meteo Aeronautica in un colpo d'occhio ! - Copyright ORBIFLY Dicembre 2007 - Disclaimer

ORBIFLY MET'MAP TEAM :

Programmazione e sviluppo : Alexandra Zaïnal
Concezione e sviluppo : Baudouin d'Aumeries
Co-Programmazione e sviluppo : Marc-Olivier Méhu
Supporto tecnico e logistico : Manuel Goepfert
Aiuto per la traduzione : Arnaldo La Scala

Contatto : metmap@orbifly.com




FONTI E CREDITI :

   NOAA